createdAt,value
2023-01-09T00:01:19.492Z,32.25
2023-01-09T00:03:47.101Z,31.65
2023-01-09T00:06:14.500Z,33.75
2023-01-09T00:08:41.216Z,29.83
2023-01-09T00:11:08.580Z,37.22
2023-01-09T00:13:35.926Z,36.70
2023-01-09T00:16:04.944Z,31.02
2023-01-09T00:18:34.084Z,36.33
2023-01-09T00:21:02.635Z,30.75
2023-01-09T00:23:29.502Z,36.10
2023-01-09T00:26:11.499Z,27.23
2023-01-09T00:28:38.902Z,31.75
2023-01-09T00:31:07.165Z,27.35
2023-01-09T00:33:41.521Z,26.92
2023-01-09T00:36:09.087Z,23.98
2023-01-09T00:38:37.524Z,23.40
2023-01-09T00:41:07.706Z,25.02
2023-01-09T00:43:42.104Z,27.55
2023-01-09T00:46:09.873Z,22.60
2023-01-09T00:48:40.373Z,26.55
2023-01-09T00:51:08.461Z,23.08
2023-01-09T00:53:39.916Z,27.98
2023-01-09T00:56:10.151Z,36.83
2023-01-09T00:58:37.804Z,35.55
2023-01-09T01:01:04.849Z,33.33
2023-01-09T01:03:31.808Z,36.97
2023-01-09T01:06:17.279Z,31.40
2023-01-09T01:08:46.035Z,32.67
2023-01-09T01:11:13.240Z,32.28
2023-01-09T01:13:41.564Z,34.42
2023-01-09T01:16:11.815Z,31.27
2023-01-09T01:18:39.209Z,38.08
2023-01-09T01:21:08.318Z,34.10
2023-01-09T01:23:36.322Z,31.52
2023-01-09T01:26:21.178Z,27.77
2023-01-09T01:28:47.951Z,32.00
2023-01-09T01:31:19.429Z,30.45
2023-01-09T01:33:46.382Z,28.48
2023-01-09T01:36:14.924Z,25.35
2023-01-09T01:38:41.900Z,28.90
2023-01-09T01:41:08.715Z,29.25
2023-01-09T01:43:56.063Z,31.90
2023-01-09T01:46:23.067Z,24.38
2023-01-09T01:48:59.930Z,30.30
2023-01-09T01:51:31.036Z,28.35
2023-01-09T01:54:03.048Z,28.02
2023-01-09T01:56:45.761Z,29.15
2023-01-09T01:59:41.274Z,28.15
2023-01-09T02:02:09.967Z,25.42
2023-01-09T02:04:40.506Z,27.27
2023-01-09T02:07:10.352Z,26.85
2023-01-09T02:09:40.477Z,26.10
2023-01-09T02:12:19.338Z,25.60
2023-01-09T02:14:48.519Z,27.10
2023-01-09T02:17:30.667Z,29.48
2023-01-09T02:20:25.337Z,31.67
2023-01-09T02:23:33.412Z,27.33
2023-01-09T02:26:21.732Z,29.33
2023-01-09T02:29:02.778Z,25.98
2023-01-09T02:31:51.416Z,25.52
2023-01-09T02:34:47.140Z,26.92
2023-01-09T02:37:44.340Z,24.75
2023-01-09T02:40:53.822Z,26.15
2023-01-09T02:43:21.493Z,21.83
2023-01-09T02:45:48.317Z,26.55
2023-01-09T02:48:15.292Z,24.85
2023-01-09T02:50:47.858Z,24.10
2023-01-09T02:53:14.565Z,24.27
2023-01-09T02:55:50.521Z,30.42
2023-01-09T02:58:52.161Z,21.00
2023-01-09T03:01:56.487Z,31.40
2023-01-09T03:04:41.817Z,25.30
2023-01-09T03:07:23.003Z,32.00
2023-01-09T03:09:53.793Z,22.05
2023-01-09T03:12:24.851Z,24.95
2023-01-09T03:14:54.837Z,23.92
2023-01-09T03:17:43.747Z,26.00
2023-01-09T03:20:14.000Z,29.48
2023-01-09T03:22:53.138Z,28.50
2023-01-09T03:25:20.035Z,34.80
2023-01-09T03:27:46.955Z,25.55
2023-01-09T03:30:13.950Z,29.58
2023-01-09T03:32:40.763Z,28.30
2023-01-09T03:35:07.906Z,25.15
2023-01-09T03:37:34.691Z,21.85
2023-01-09T03:40:02.752Z,30.00
2023-01-09T03:42:29.549Z,28.73
2023-01-09T03:44:56.408Z,32.72
2023-01-09T03:47:23.289Z,34.83
2023-01-09T03:49:50.254Z,24.90
2023-01-09T03:52:17.156Z,27.00
2023-01-09T03:54:43.922Z,27.80
2023-01-09T03:57:10.754Z,22.05
2023-01-09T03:59:37.831Z,21.92
2023-01-09T04:02:04.890Z,24.60
2023-01-09T04:04:31.948Z,24.83
2023-01-09T04:06:58.755Z,22.75
2023-01-09T04:09:25.759Z,22.05
2023-01-09T04:11:52.496Z,23.83
2023-01-09T04:14:19.331Z,24.98
2023-01-09T04:16:46.267Z,25.90
2023-01-09T04:19:13.026Z,25.38
2023-01-09T04:21:39.877Z,30.92
2023-01-09T04:24:07.027Z,23.25
2023-01-09T04:26:33.858Z,24.42
2023-01-09T04:29:00.859Z,29.73
2023-01-09T04:31:27.771Z,22.95
2023-01-09T04:33:54.666Z,23.73
2023-01-09T04:36:21.499Z,23.30
2023-01-09T04:38:48.431Z,24.33
2023-01-09T04:41:35.279Z,23.90
2023-01-09T04:44:02.168Z,28.23
2023-01-09T04:46:28.936Z,25.35
2023-01-09T04:48:55.817Z,28.33
2023-01-09T04:51:22.681Z,28.10
2023-01-09T04:53:49.553Z,27.05
2023-01-09T04:56:16.398Z,27.65
2023-01-09T04:58:43.416Z,30.45
2023-01-09T05:01:10.350Z,30.90
2023-01-09T05:03:37.187Z,34.42
2023-01-09T05:06:04.490Z,33.00
2023-01-09T05:08:31.352Z,35.33
2023-01-09T05:10:58.150Z,24.08
2023-01-09T05:13:24.936Z,25.23
2023-01-09T05:15:51.796Z,30.70
2023-01-09T05:18:18.576Z,35.17
2023-01-09T05:20:45.682Z,31.00
2023-01-09T05:23:12.557Z,35.92
2023-01-09T05:25:39.558Z,24.20
2023-01-09T05:28:06.692Z,25.88
2023-01-09T05:30:33.561Z,29.45
2023-01-09T05:33:00.463Z,32.75
2023-01-09T05:35:27.334Z,29.63
2023-01-09T05:37:54.072Z,25.77
2023-01-09T05:40:29.179Z,26.15
2023-01-09T05:42:59.181Z,21.98
2023-01-09T05:45:27.413Z,22.98
2023-01-09T05:47:54.263Z,34.58
2023-01-09T05:50:21.297Z,28.48
2023-01-09T05:52:48.039Z,25.20
2023-01-09T05:55:15.295Z,27.13
2023-01-09T05:57:42.973Z,31.10
2023-01-09T06:00:25.353Z,36.40
2023-01-09T06:02:52.603Z,29.15
2023-01-09T06:05:19.439Z,26.30
2023-01-09T06:07:46.243Z,29.10
2023-01-09T06:10:15.141Z,35.92
2023-01-09T06:12:44.873Z,37.88
2023-01-09T06:15:12.079Z,35.47
2023-01-09T06:17:38.942Z,37.15
2023-01-09T06:20:06.308Z,36.65
2023-01-09T06:22:36.267Z,41.90
2023-01-09T06:25:03.590Z,40.92
2023-01-09T06:27:30.515Z,55.45
2023-01-09T06:29:57.357Z,46.42
2023-01-09T06:32:24.526Z,49.63
2023-01-09T06:34:54.292Z,55.17
2023-01-09T06:37:21.098Z,57.65
2023-01-09T06:39:48.104Z,58.58
2023-01-09T06:42:15.137Z,53.90
2023-01-09T06:44:41.857Z,56.58
2023-01-09T06:47:08.814Z,51.38
2023-01-09T06:49:35.702Z,51.17
2023-01-09T06:52:05.797Z,60.05
2023-01-09T06:54:32.853Z,53.45
2023-01-09T06:56:59.839Z,83.85
2023-01-09T06:59:26.821Z,118.70
2023-01-09T07:01:55.363Z,87.78
2023-01-09T07:04:22.727Z,78.80
2023-01-09T07:06:51.870Z,68.78
2023-01-09T07:09:19.281Z,54.35
2023-01-09T07:11:46.196Z,52.70
2023-01-09T07:14:13.028Z,58.40
2023-01-09T07:16:42.062Z,61.63
2023-01-09T07:19:10.973Z,65.43
2023-01-09T07:21:37.842Z,57.83
2023-01-09T07:24:04.963Z,67.47
2023-01-09T07:26:31.897Z,60.35
2023-01-09T07:28:58.694Z,68.40
2023-01-09T07:31:26.005Z,61.92
2023-01-09T07:33:52.815Z,61.33
2023-01-09T07:36:19.670Z,63.92
2023-01-09T07:38:46.535Z,59.92
2023-01-09T07:41:13.385Z,62.85
2023-01-09T07:43:40.304Z,71.95
2023-01-09T07:46:08.018Z,70.75
2023-01-09T07:48:34.870Z,73.38
2023-01-09T07:51:04.112Z,65.82
2023-01-09T07:53:31.160Z,81.00
2023-01-09T07:55:58.064Z,69.72
2023-01-09T07:58:24.873Z,72.97
2023-01-09T08:00:52.241Z,71.15
2023-01-09T08:03:19.377Z,79.32
2023-01-09T08:08:54.817Z,81.82
2023-01-09T08:11:24.222Z,76.78
2023-01-09T08:13:52.068Z,79.38
2023-01-09T08:16:19.177Z,70.82
2023-01-09T08:18:46.525Z,76.35
2023-01-09T08:24:15.750Z,63.88
2023-01-09T08:26:52.917Z,64.65
2023-01-09T08:29:25.842Z,67.88
2023-01-09T08:32:01.169Z,78.25
2023-01-09T08:34:34.636Z,80.07
2023-01-09T08:37:09.057Z,91.95
2023-01-09T08:39:37.266Z,85.75
2023-01-09T08:42:22.621Z,84.63
2023-01-09T08:45:08.320Z,77.85
2023-01-09T08:47:35.334Z,80.43
2023-01-09T08:50:02.708Z,84.10
2023-01-09T08:52:30.970Z,81.60
2023-01-09T08:54:57.823Z,73.78
2023-01-09T08:57:24.937Z,66.97
2023-01-09T08:59:52.165Z,58.97
2023-01-09T09:02:18.979Z,72.10
2023-01-09T09:04:49.414Z,44.63
2023-01-09T09:07:16.381Z,45.65
2023-01-09T09:09:43.083Z,45.97
2023-01-09T09:12:10.077Z,50.63
2023-01-09T09:14:55.760Z,55.25
2023-01-09T09:17:22.597Z,65.07
2023-01-09T09:19:49.398Z,59.67
2023-01-09T09:22:16.308Z,58.70
2023-01-09T09:24:43.059Z,51.85
2023-01-09T09:27:16.012Z,51.63
2023-01-09T09:29:44.988Z,46.13
2023-01-09T09:32:12.016Z,48.58
2023-01-09T09:34:38.984Z,48.17
2023-01-09T09:37:05.958Z,41.47
2023-01-09T09:39:32.949Z,38.60
2023-01-09T09:42:46.690Z,31.85
2023-01-09T09:45:28.851Z,56.67
2023-01-09T09:48:23.073Z,48.92
2023-01-09T09:51:16.583Z,28.45
2023-01-09T09:53:55.822Z,20.42
2023-01-09T09:56:24.370Z,17.20
2023-01-09T09:58:57.574Z,14.25
2023-01-09T10:01:38.249Z,12.30
2023-01-09T10:04:11.364Z,12.43
2023-01-09T10:06:43.491Z,13.50
2023-01-09T10:09:32.247Z,14.45
2023-01-09T10:12:17.481Z,15.63
2023-01-09T10:14:45.189Z,14.70
2023-01-09T10:17:33.148Z,16.05
2023-01-09T10:20:25.172Z,12.30
2023-01-09T10:22:58.527Z,9.57
2023-01-09T10:25:34.835Z,8.68
2023-01-09T10:28:22.509Z,10.45
2023-01-09T10:30:53.660Z,11.63
2023-01-09T10:33:39.394Z,12.50
2023-01-09T10:36:28.746Z,12.45
2023-01-09T10:38:58.457Z,14.93
2023-01-09T10:41:36.004Z,14.20
2023-01-09T10:44:18.270Z,13.40
2023-01-09T10:46:55.852Z,12.48
2023-01-09T10:49:24.338Z,15.18
2023-01-09T10:51:57.677Z,13.98
2023-01-09T10:54:24.968Z,12.98
2023-01-09T10:56:55.381Z,9.98
2023-01-09T10:59:23.657Z,10.10
2023-01-09T11:01:50.969Z,9.95
2023-01-09T11:04:28.334Z,8.30
2023-01-09T11:07:07.488Z,9.40
2023-01-09T11:09:57.337Z,13.35
2023-01-09T11:12:26.495Z,9.00
2023-01-09T11:14:53.686Z,11.88
2023-01-09T11:17:27.437Z,9.88
2023-01-09T11:20:07.332Z,10.60
2023-01-09T11:22:55.346Z,12.43
2023-01-09T11:25:24.785Z,8.18
2023-01-09T11:28:17.272Z,6.75
2023-01-09T11:30:55.118Z,10.00
2023-01-09T11:33:27.943Z,8.63
2023-01-09T11:36:03.584Z,8.90
2023-01-09T11:38:39.408Z,11.07
2023-01-09T11:41:06.875Z,7.15
2023-01-09T11:43:38.331Z,8.95
2023-01-09T11:46:11.685Z,7.15
2023-01-09T11:48:58.993Z,9.15
2023-01-09T11:51:34.925Z,8.00
2023-01-09T11:54:24.398Z,9.18
2023-01-09T11:56:52.317Z,11.05
2023-01-09T11:59:22.192Z,9.32
2023-01-09T12:02:01.196Z,10.98
2023-01-09T12:04:56.078Z,10.82
2023-01-09T12:07:54.115Z,10.07
2023-01-09T12:10:39.652Z,11.10
2023-01-09T12:13:24.433Z,11.90
2023-01-09T12:16:10.032Z,10.73
2023-01-09T12:19:14.179Z,11.60
2023-01-09T12:22:03.077Z,11.65
2023-01-09T12:24:53.402Z,10.55
2023-01-09T12:27:26.948Z,12.15
2023-01-09T12:30:26.772Z,11.75
2023-01-09T12:33:23.154Z,9.82
2023-01-09T12:39:28.366Z,9.90
2023-01-09T12:42:07.255Z,13.85
2023-01-09T12:44:46.132Z,16.13
2023-01-09T12:47:31.731Z,13.65
2023-01-09T12:50:17.258Z,13.65
2023-01-09T12:53:07.100Z,11.73
2023-01-09T12:55:37.847Z,13.18
2023-01-09T12:58:17.458Z,14.15
2023-01-09T13:00:49.420Z,11.82
2023-01-09T13:03:41.955Z,16.40
2023-01-09T13:06:14.756Z,13.63
2023-01-09T13:08:51.767Z,12.23
2023-01-09T13:11:31.715Z,17.80
2023-01-09T13:14:32.860Z,15.68
2023-01-09T13:17:03.368Z,15.30
2023-01-09T13:19:38.213Z,14.40
2023-01-09T13:22:06.776Z,19.60
2023-01-09T13:24:39.793Z,17.00
2023-01-09T13:27:11.190Z,11.55
2023-01-09T13:29:44.289Z,12.25
2023-01-09T13:32:23.405Z,14.88
2023-01-09T13:34:57.578Z,10.18
2023-01-09T13:37:30.752Z,10.27
2023-01-09T13:40:03.812Z,12.73
2023-01-09T13:42:39.141Z,16.80
2023-01-09T13:45:18.299Z,12.57
2023-01-09T13:47:45.615Z,13.68
2023-01-09T13:50:24.367Z,14.05
2023-01-09T13:52:51.586Z,14.60
2023-01-09T13:55:18.265Z,15.50
2023-01-09T13:58:06.326Z,16.52
2023-01-09T14:00:36.267Z,17.20
2023-01-09T14:03:26.168Z,12.60
2023-01-09T14:05:52.982Z,13.20
2023-01-09T14:08:22.510Z,13.25
2023-01-09T14:10:52.764Z,14.48
2023-01-09T14:13:31.865Z,14.48
2023-01-09T14:16:23.584Z,13.43
2023-01-09T14:19:17.885Z,15.38
2023-01-09T14:21:57.632Z,19.23
2023-01-09T14:24:32.486Z,18.45
2023-01-09T14:27:03.772Z,20.08
2023-01-09T14:29:36.796Z,17.77
2023-01-09T14:32:30.243Z,21.40
2023-01-09T14:35:08.376Z,16.35
2023-01-09T14:37:40.939Z,23.63
2023-01-09T14:40:16.041Z,20.10
2023-01-09T14:42:46.406Z,16.77
2023-01-09T14:45:21.837Z,17.45
2023-01-09T14:47:59.549Z,20.48
2023-01-09T14:50:56.256Z,15.63
2023-01-09T14:53:42.967Z,24.73
2023-01-09T14:56:30.304Z,22.33
2023-01-09T14:59:12.095Z,22.75
2023-01-09T15:01:42.761Z,21.65
2023-01-09T15:04:38.996Z,15.20
2023-01-09T15:07:09.552Z,18.50
2023-01-09T15:09:47.123Z,18.70
2023-01-09T15:12:20.846Z,15.93
2023-01-09T15:14:56.382Z,16.95
2023-01-09T15:17:27.507Z,17.85
2023-01-09T15:19:58.950Z,19.83
2023-01-09T15:22:31.401Z,19.02
2023-01-09T15:24:59.410Z,16.38
2023-01-09T15:27:26.533Z,16.67
2023-01-09T15:29:53.986Z,14.43
2023-01-09T15:32:28.321Z,15.55
2023-01-09T15:34:56.920Z,20.75
2023-01-09T15:37:35.218Z,20.40
2023-01-09T15:40:05.782Z,19.35
2023-01-09T15:42:56.298Z,22.05
2023-01-09T15:45:59.505Z,18.52
2023-01-09T15:48:37.160Z,15.27
2023-01-09T15:51:15.310Z,17.88
2023-01-09T15:53:44.784Z,18.10
2023-01-09T15:56:20.417Z,19.02
2023-01-09T15:58:51.546Z,21.90
2023-01-09T16:01:40.948Z,18.10
2023-01-09T16:04:16.631Z,21.45
2023-01-09T16:06:48.179Z,23.35
2023-01-09T16:09:23.768Z,28.08
2023-01-09T16:11:54.200Z,22.67
2023-01-09T16:14:45.774Z,22.77
2023-01-09T16:17:16.890Z,25.60
2023-01-09T16:19:51.203Z,18.08
2023-01-09T16:22:33.443Z,21.05
2023-01-09T16:25:03.110Z,18.88
2023-01-09T16:27:33.581Z,20.92
2023-01-09T16:30:09.115Z,18.13
2023-01-09T16:32:46.606Z,18.63
2023-01-09T16:35:18.878Z,18.45
2023-01-09T16:37:45.853Z,27.00
2023-01-09T16:40:18.665Z,21.88
2023-01-09T16:43:01.327Z,21.33
2023-01-09T16:45:30.009Z,19.90
2023-01-09T16:47:58.271Z,15.95
2023-01-09T16:50:28.078Z,20.27
2023-01-09T16:52:56.753Z,19.23
2023-01-09T16:55:26.213Z,21.63
2023-01-09T16:57:53.381Z,24.15
2023-01-09T17:00:21.844Z,18.73
2023-01-09T17:02:48.666Z,22.63
2023-01-09T17:05:15.572Z,28.88
2023-01-09T17:07:42.697Z,24.52
2023-01-09T17:10:20.058Z,23.40
2023-01-09T17:12:47.204Z,25.23
2023-01-09T17:15:17.973Z,23.88
2023-01-09T17:17:44.997Z,22.17
2023-01-09T17:20:18.749Z,19.80
2023-01-09T17:22:45.618Z,23.77
2023-01-09T17:25:34.894Z,22.13
2023-01-09T17:28:22.210Z,17.95
2023-01-09T17:30:49.190Z,19.08
2023-01-09T17:33:17.976Z,19.08
2023-01-09T17:35:44.905Z,18.70
2023-01-09T17:38:19.048Z,14.82
2023-01-09T17:40:46.242Z,18.73
2023-01-09T17:43:22.714Z,18.25
2023-01-09T17:45:56.759Z,18.90
2023-01-09T17:48:24.308Z,20.48
2023-01-09T17:50:54.331Z,24.13
2023-01-09T17:53:25.883Z,22.88
2023-01-09T17:55:56.628Z,22.45
2023-01-09T17:58:36.081Z,26.00
2023-01-09T18:01:05.621Z,24.98
2023-01-09T18:03:34.606Z,30.75
2023-01-09T18:06:07.906Z,26.15
2023-01-09T18:08:34.819Z,23.40
2023-01-09T18:11:06.148Z,26.17
2023-01-09T18:13:37.322Z,32.47
2023-01-09T18:16:05.062Z,29.65
2023-01-09T18:18:34.679Z,32.15
2023-01-09T18:21:04.977Z,33.92
2023-01-09T18:23:31.984Z,29.73
2023-01-09T18:26:09.881Z,32.55
2023-01-09T18:28:40.649Z,30.13
2023-01-09T18:31:07.724Z,25.90
2023-01-09T18:33:34.913Z,33.92
2023-01-09T18:36:11.781Z,32.25
2023-01-09T18:38:38.893Z,34.75
2023-01-09T18:41:06.261Z,26.55
2023-01-09T18:43:33.279Z,25.00
2023-01-09T18:46:05.371Z,26.88
2023-01-09T18:48:52.125Z,27.05
2023-01-09T18:51:19.954Z,23.45
2023-01-09T18:53:53.991Z,26.00
2023-01-09T18:56:45.824Z,26.20
2023-01-09T18:59:12.866Z,25.63
2023-01-09T19:01:44.728Z,27.98
2023-01-09T19:04:22.417Z,27.63
2023-01-09T19:06:53.461Z,29.48
2023-01-09T19:09:22.765Z,27.80
2023-01-09T19:11:49.916Z,26.20
2023-01-09T19:14:17.029Z,24.70
2023-01-09T19:16:44.057Z,26.45
2023-01-09T19:19:16.499Z,25.15
2023-01-09T19:21:49.463Z,27.45
2023-01-09T19:24:21.044Z,25.13
2023-01-09T19:26:48.372Z,24.10
2023-01-09T19:29:18.465Z,24.73
2023-01-09T19:31:48.846Z,22.65
2023-01-09T19:34:18.982Z,25.08
2023-01-09T19:36:47.731Z,21.35
2023-01-09T19:39:15.303Z,23.13
2023-01-09T19:41:43.027Z,28.60
2023-01-09T19:44:11.255Z,25.80
2023-01-09T19:46:38.357Z,32.70
2023-01-09T19:49:06.321Z,27.15
2023-01-09T19:51:33.648Z,24.58
2023-01-09T19:54:03.233Z,26.08
2023-01-09T19:56:32.267Z,30.42
2023-01-09T19:59:01.966Z,25.98
2023-01-09T20:01:37.561Z,27.20
2023-01-09T20:04:10.210Z,26.63
2023-01-09T20:06:41.812Z,23.92
2023-01-09T20:09:11.223Z,23.65
2023-01-09T20:11:41.110Z,27.95
2023-01-09T20:14:12.930Z,27.02
2023-01-09T20:16:39.825Z,25.92
2023-01-09T20:19:08.752Z,26.75
2023-01-09T20:21:36.433Z,30.98
2023-01-09T20:24:05.781Z,28.70
2023-01-09T20:26:34.545Z,28.15
2023-01-09T20:29:02.004Z,30.10
2023-01-09T20:31:31.425Z,24.20
2023-01-09T20:34:00.008Z,27.65
2023-01-09T20:36:30.288Z,29.15
2023-01-09T20:38:59.353Z,24.27
2023-01-09T20:41:26.886Z,30.40
2023-01-09T20:43:56.267Z,32.28
2023-01-09T20:46:27.771Z,27.30
2023-01-09T20:48:59.753Z,28.42
2023-01-09T20:51:26.864Z,25.88
2023-01-09T20:53:59.844Z,26.85
2023-01-09T20:56:28.666Z,34.60
2023-01-09T20:59:11.869Z,22.33
2023-01-09T21:01:43.174Z,24.77
2023-01-09T21:04:18.216Z,24.05
2023-01-09T21:06:54.961Z,24.02
2023-01-09T21:12:40.895Z,23.42
2023-01-09T21:15:16.379Z,23.73
2023-01-09T21:17:45.922Z,23.00
2023-01-09T21:20:16.110Z,25.00
2023-01-09T21:22:45.521Z,22.80
2023-01-09T21:27:51.666Z,21.95
2023-01-09T21:33:38.217Z,22.45
2023-01-09T21:36:35.695Z,20.38
2023-01-09T21:39:33.861Z,18.50
2023-01-09T21:49:15.805Z,18.63
2023-01-09T21:53:20.210Z,15.98
2023-01-09T21:55:08.972Z,17.83
2023-01-09T22:00:49.994Z,16.88
2023-01-09T22:03:19.105Z,15.02
2023-01-09T22:05:51.411Z,16.58
2023-01-09T22:08:28.276Z,12.25
2023-01-09T22:16:27.798Z,12.07
2023-01-09T23:18:00.765Z,8.73
2023-01-09T23:20:31.973Z,6.13
2023-01-09T23:28:39.263Z,7.97
2023-01-09T23:34:25.956Z,7.55
2023-01-09T23:36:59.655Z,7.10
2023-01-09T23:46:47.768Z,7.32
2023-01-09T23:59:30.755Z,7.70
